createdAt,value
2023-04-16T00:02:28.276Z,100569.55
2023-04-16T00:05:06.046Z,100575.66
2023-04-16T00:07:36.365Z,100579.31
2023-04-16T00:10:11.929Z,100580.31
2023-04-16T00:12:48.983Z,100581.92
2023-04-16T00:15:26.284Z,100579.20
2023-04-16T00:18:03.365Z,100577.00
2023-04-16T00:20:40.023Z,100575.20
2023-04-16T00:23:17.201Z,100576.20
2023-04-16T00:26:00.933Z,100574.85
2023-04-16T00:28:37.566Z,100570.40
2023-04-16T00:31:14.476Z,100574.52
2023-04-16T00:33:51.820Z,100567.03
2023-04-16T00:36:31.702Z,100583.34
2023-04-16T00:39:08.992Z,100583.86
2023-04-16T00:41:47.036Z,100580.39
2023-04-16T00:44:17.779Z,100585.62
2023-04-16T00:46:53.120Z,100581.30
2023-04-16T00:49:31.928Z,100579.54
2023-04-16T00:52:04.181Z,100575.45
2023-04-16T00:54:43.154Z,100575.08
2023-04-16T00:57:21.717Z,100576.73
2023-04-16T00:59:59.553Z,100579.98
2023-04-16T01:02:37.286Z,100580.27
2023-04-16T01:05:14.992Z,100580.50
2023-04-16T01:07:52.060Z,100584.95
2023-04-16T01:10:29.534Z,100582.64
2023-04-16T01:13:07.244Z,100586.56
2023-04-16T01:15:38.037Z,100581.38
2023-04-16T01:18:27.101Z,100580.02
2023-04-16T01:20:57.584Z,100581.17
2023-04-16T01:23:34.364Z,100580.29
2023-04-16T01:26:04.539Z,100578.64
2023-04-16T01:28:42.671Z,100578.83
2023-04-16T01:31:20.131Z,100580.50
2023-04-16T01:33:57.151Z,100582.41
2023-04-16T01:36:33.788Z,100586.80
2023-04-16T01:39:16.107Z,100587.39
2023-04-16T01:41:52.642Z,100581.70
2023-04-16T01:44:31.187Z,100583.70
2023-04-16T01:47:10.010Z,100583.27
2023-04-16T01:49:48.566Z,100587.44
2023-04-16T01:52:25.554Z,100589.36
2023-04-16T01:55:02.608Z,100585.67
2023-04-16T01:57:40.625Z,100586.88
2023-04-16T02:00:19.382Z,100586.86
2023-04-16T02:02:53.526Z,100591.98
2023-04-16T02:05:31.119Z,100592.36
2023-04-16T02:08:11.702Z,100596.90
2023-04-16T02:10:51.569Z,100602.91
2023-04-16T02:13:28.423Z,100606.55
2023-04-16T02:16:05.736Z,100606.89
2023-04-16T02:18:42.354Z,100608.47
2023-04-16T02:21:20.505Z,100607.98
2023-04-16T02:23:57.771Z,100611.61
2023-04-16T02:26:35.361Z,100615.05
2023-04-16T02:29:12.486Z,100614.27
2023-04-16T02:31:50.144Z,100615.42
2023-04-16T02:34:27.161Z,100615.94
2023-04-16T02:37:04.675Z,100614.61
2023-04-16T02:39:43.169Z,100621.87
2023-04-16T02:42:15.137Z,100620.85
2023-04-16T02:44:51.968Z,100627.38
2023-04-16T02:47:29.959Z,100617.64
2023-04-16T02:50:08.437Z,100630.23
2023-04-16T02:52:46.321Z,100630.44
2023-04-16T02:55:23.214Z,100637.37
2023-04-16T02:58:00.328Z,100642.61
2023-04-16T03:00:37.379Z,100643.45
2023-04-16T03:03:14.876Z,100645.79
2023-04-16T03:05:52.119Z,100645.33
2023-04-16T03:08:29.720Z,100647.44
2023-04-16T03:11:07.819Z,100650.98
2023-04-16T03:13:45.158Z,100655.02
2023-04-16T03:16:23.846Z,100657.41
2023-04-16T03:18:56.490Z,100656.40
2023-04-16T03:21:34.883Z,100659.58
2023-04-16T03:24:12.149Z,100654.11
2023-04-16T03:26:49.244Z,100654.88
2023-04-16T03:29:26.993Z,100656.23
2023-04-16T03:32:04.762Z,100656.08
2023-04-16T03:34:42.327Z,100658.70
2023-04-16T03:37:18.905Z,100654.05
2023-04-16T03:39:56.627Z,100655.05
2023-04-16T03:42:33.874Z,100653.36
2023-04-16T03:45:11.986Z,100654.77
2023-04-16T03:47:53.319Z,100657.89
2023-04-16T03:50:31.700Z,100659.45
2023-04-16T03:53:09.713Z,100662.77
2023-04-16T03:55:46.397Z,100664.23
2023-04-16T03:58:25.161Z,100665.38
2023-04-16T04:00:57.262Z,100668.11
2023-04-16T04:03:34.961Z,100665.15
2023-04-16T04:06:16.467Z,100667.58
2023-04-16T04:08:53.091Z,100655.60
2023-04-16T04:11:30.786Z,100665.67
2023-04-16T04:14:08.848Z,100670.63
2023-04-16T04:16:46.204Z,100668.54
2023-04-16T04:19:23.422Z,100669.03
2023-04-16T04:22:00.365Z,100674.86
2023-04-16T04:24:40.075Z,100678.36
2023-04-16T04:27:16.740Z,100678.86
2023-04-16T04:29:54.077Z,100680.54
2023-04-16T04:32:31.386Z,100683.14
2023-04-16T04:35:08.713Z,100684.57
2023-04-16T04:37:46.484Z,100685.38
2023-04-16T04:40:18.502Z,100689.48
2023-04-16T04:42:56.444Z,100694.79
2023-04-16T04:45:33.112Z,100688.71
2023-04-16T04:48:11.054Z,100696.79
2023-04-16T04:50:49.032Z,100700.05
2023-04-16T04:53:26.390Z,100705.71
2023-04-16T04:56:12.348Z,100707.61
2023-04-16T04:58:56.346Z,100711.09
2023-04-16T05:01:27.306Z,100708.50
2023-04-16T05:04:05.331Z,100709.14
2023-04-16T05:06:42.688Z,100712.48
2023-04-16T05:09:20.258Z,100718.89
2023-04-16T05:11:57.893Z,100718.27
2023-04-16T05:14:36.564Z,100723.17
2023-04-16T05:17:13.647Z,100724.66
2023-04-16T05:19:50.885Z,100716.55
2023-04-16T05:22:28.204Z,100717.90
2023-04-16T05:25:00.094Z,100716.14
2023-04-16T05:27:38.672Z,100716.31
2023-04-16T05:30:16.311Z,100721.23
2023-04-16T05:32:54.309Z,100721.05
2023-04-16T05:35:30.824Z,100725.27
2023-04-16T05:38:08.882Z,100727.37
2023-04-16T05:40:45.720Z,100724.88
2023-04-16T05:43:23.199Z,100728.35
2023-04-16T05:46:00.322Z,100728.83
2023-04-16T05:48:37.381Z,100730.85
2023-04-16T05:51:14.203Z,100732.94
2023-04-16T05:53:51.711Z,100735.52
2023-04-16T05:56:28.851Z,100740.69
2023-04-16T05:59:00.826Z,100743.37
2023-04-16T06:01:40.574Z,100745.05
2023-04-16T06:04:19.090Z,100743.38
2023-04-16T06:06:56.356Z,100746.04
2023-04-16T06:09:33.903Z,100735.67
2023-04-16T06:12:12.184Z,100749.86
2023-04-16T06:14:49.278Z,100752.07
2023-04-16T06:17:27.835Z,100755.70
2023-04-16T06:20:05.469Z,100757.56
2023-04-16T06:22:42.536Z,100756.48
2023-04-16T06:25:20.572Z,100763.98
2023-04-16T06:27:58.885Z,100761.59
2023-04-16T06:30:37.724Z,100766.97
2023-04-16T06:33:16.319Z,100769.20
2023-04-16T06:35:53.563Z,100768.42
2023-04-16T06:38:31.637Z,100770.27
2023-04-16T06:41:11.760Z,100765.27
2023-04-16T06:43:51.428Z,100765.61
2023-04-16T06:46:30.730Z,100768.61
2023-04-16T06:49:02.588Z,100767.77
2023-04-16T06:51:40.381Z,100765.48
2023-04-16T06:54:18.412Z,100764.98
2023-04-16T06:56:57.109Z,100765.00
2023-04-16T06:59:35.019Z,100770.39
2023-04-16T07:02:13.892Z,100772.69
2023-04-16T07:04:52.784Z,100773.41
2023-04-16T07:07:30.148Z,100774.23
2023-04-16T07:10:07.443Z,100778.89
2023-04-16T07:12:45.116Z,100780.20
2023-04-16T07:15:22.449Z,100784.95
2023-04-16T07:18:00.496Z,100785.56
2023-04-16T07:20:38.588Z,100789.54
2023-04-16T07:23:16.354Z,100788.50
2023-04-16T07:25:54.306Z,100787.70
2023-04-16T07:28:32.885Z,100795.02
2023-04-16T07:31:11.506Z,100800.14
2023-04-16T07:33:44.280Z,100803.65
2023-04-16T07:36:23.741Z,100807.61
2023-04-16T07:39:01.355Z,100809.10
2023-04-16T07:41:41.121Z,100809.17
2023-04-16T07:44:19.215Z,100810.95
2023-04-16T07:46:58.162Z,100811.64
2023-04-16T07:49:35.726Z,100803.63
2023-04-16T07:52:13.927Z,100814.29
2023-04-16T07:54:52.424Z,100818.39
2023-04-16T07:57:31.478Z,100822.06
2023-04-16T08:00:11.040Z,100819.79
2023-04-16T08:02:49.399Z,100823.90
2023-04-16T08:05:27.695Z,100821.73
2023-04-16T08:08:05.919Z,100825.58
2023-04-16T08:10:44.424Z,100824.58
2023-04-16T08:13:23.221Z,100830.21
2023-04-16T08:16:01.430Z,100832.08
2023-04-16T08:18:41.090Z,100838.52
2023-04-16T08:21:19.023Z,100840.11
2023-04-16T08:23:58.163Z,100842.27
2023-04-16T08:26:36.731Z,100840.79
2023-04-16T08:29:16.411Z,100840.84
2023-04-16T08:31:53.939Z,100840.06
2023-04-16T08:34:25.365Z,100838.81
2023-04-16T08:37:03.801Z,100841.12
2023-04-16T08:39:42.461Z,100838.58
2023-04-16T08:42:37.291Z,100837.07
2023-04-16T08:45:20.897Z,100838.05
2023-04-16T08:47:59.590Z,100838.61
2023-04-16T08:50:37.840Z,100843.55
2023-04-16T08:53:19.783Z,100842.70
2023-04-16T08:56:01.894Z,100848.20
2023-04-16T08:58:41.149Z,100847.89
2023-04-16T09:01:11.829Z,100848.98
2023-04-16T09:03:48.875Z,100847.52
2023-04-16T09:06:27.033Z,100853.04
2023-04-16T09:09:06.363Z,100857.98
2023-04-16T09:11:46.181Z,100857.77
2023-04-16T09:14:25.225Z,100856.05
2023-04-16T09:17:04.411Z,100856.84
2023-04-16T09:19:42.729Z,100856.75
2023-04-16T09:22:21.660Z,100864.35
2023-04-16T09:24:59.171Z,100867.34
2023-04-16T09:27:37.943Z,100864.40
2023-04-16T09:30:32.319Z,100867.51
2023-04-16T09:33:24.654Z,100869.16
2023-04-16T09:36:03.397Z,100873.59
2023-04-16T09:38:56.937Z,100873.53
2023-04-16T09:41:40.257Z,100879.22
2023-04-16T09:44:18.503Z,100877.96
2023-04-16T09:46:56.188Z,100876.55
2023-04-16T09:49:43.398Z,100881.66
2023-04-16T09:52:26.735Z,100883.23
2023-04-16T09:55:04.889Z,100882.54
2023-04-16T09:57:43.868Z,100886.07
2023-04-16T10:00:24.957Z,100886.80
2023-04-16T10:03:07.876Z,100890.17
2023-04-16T10:05:46.265Z,100893.27
2023-04-16T10:08:25.683Z,100895.35
2023-04-16T10:11:04.040Z,100899.38
2023-04-16T10:13:41.900Z,100896.80
2023-04-16T10:16:19.877Z,100896.97
2023-04-16T10:18:58.285Z,100901.66
2023-04-16T10:21:36.561Z,100904.13
2023-04-16T10:24:17.219Z,100906.30
2023-04-16T10:26:56.298Z,100912.25
2023-04-16T10:29:35.107Z,100913.30
2023-04-16T10:32:13.952Z,100913.52
2023-04-16T10:34:52.343Z,100913.46
2023-04-16T10:37:39.238Z,100914.91
2023-04-16T10:40:30.032Z,100917.66
2023-04-16T10:43:09.124Z,100918.61
2023-04-16T10:45:47.489Z,100918.50
2023-04-16T10:48:42.136Z,100919.02
2023-04-16T10:51:37.942Z,100921.44
2023-04-16T10:54:15.848Z,100923.30
2023-04-16T10:56:54.819Z,100920.36
2023-04-16T10:59:35.499Z,100918.70
2023-04-16T11:02:20.479Z,100917.09
2023-04-16T11:05:00.760Z,100918.33
2023-04-16T11:07:50.051Z,100919.75
2023-04-16T11:10:28.797Z,100923.92
2023-04-16T11:13:10.052Z,100917.11
2023-04-16T11:15:40.676Z,100926.70
2023-04-16T11:18:23.572Z,100925.33
2023-04-16T11:21:02.429Z,100929.91
2023-04-16T11:23:52.101Z,100930.37
2023-04-16T11:26:31.115Z,100928.41
2023-04-16T11:29:17.724Z,100929.17
2023-04-16T11:32:00.204Z,100929.42
2023-04-16T11:34:46.948Z,100930.41
2023-04-16T11:37:39.203Z,100935.41
2023-04-16T11:40:17.324Z,100932.05
2023-04-16T11:42:54.868Z,100928.39
2023-04-16T11:45:32.445Z,100926.65
2023-04-16T11:48:11.346Z,100926.63
2023-04-16T11:50:59.108Z,100923.55
2023-04-16T11:53:38.325Z,100917.98
2023-04-16T11:56:16.750Z,100913.84
2023-04-16T11:59:21.416Z,100911.38
2023-04-16T12:02:01.112Z,100910.98
2023-04-16T12:04:41.165Z,100911.98
2023-04-16T12:07:20.869Z,100911.27
2023-04-16T12:10:07.216Z,100912.83
2023-04-16T12:12:46.470Z,100911.33
2023-04-16T12:15:24.664Z,100911.01
2023-04-16T12:18:24.666Z,100910.41
2023-04-16T12:21:09.686Z,100908.47
2023-04-16T12:23:56.856Z,100906.11
2023-04-16T12:27:03.526Z,100899.53
2023-04-16T12:29:42.268Z,100892.52
2023-04-16T12:32:36.567Z,100892.77
2023-04-16T12:35:32.097Z,100893.42
2023-04-16T12:38:12.310Z,100896.23
2023-04-16T12:40:50.536Z,100894.69
2023-04-16T12:43:26.808Z,100893.30
2023-04-16T12:46:05.218Z,100889.83
2023-04-16T12:48:44.034Z,100887.54
2023-04-16T12:51:23.470Z,100886.00
2023-04-16T12:54:02.681Z,100889.23
2023-04-16T12:56:42.052Z,100891.41
2023-04-16T12:59:13.518Z,100889.35
2023-04-16T13:01:52.075Z,100886.39
2023-04-16T13:04:29.755Z,100890.64
2023-04-16T13:07:08.671Z,100884.49
2023-04-16T13:09:47.155Z,100883.38
2023-04-16T13:12:25.669Z,100883.84
2023-04-16T13:15:03.963Z,100883.45
2023-04-16T13:17:42.827Z,100880.30
2023-04-16T13:20:23.880Z,100879.85
2023-04-16T13:23:09.437Z,100880.45
2023-04-16T13:25:50.574Z,100877.89
2023-04-16T13:28:29.659Z,100876.18
2023-04-16T13:31:08.420Z,100880.98
2023-04-16T13:33:48.077Z,100878.03
2023-04-16T13:36:28.094Z,100879.41
2023-04-16T13:39:11.970Z,100877.65
2023-04-16T13:41:51.995Z,100882.68
2023-04-16T13:44:30.251Z,100886.98
2023-04-16T13:47:08.910Z,100885.58
2023-04-16T13:49:48.360Z,100885.61
2023-04-16T13:52:27.310Z,100886.75
2023-04-16T13:55:00.149Z,100886.11
2023-04-16T13:57:40.671Z,100885.82
2023-04-16T14:00:20.088Z,100882.57
2023-04-16T14:02:58.989Z,100882.09
2023-04-16T14:05:37.561Z,100883.73
2023-04-16T14:08:16.827Z,100883.59
2023-04-16T14:10:55.745Z,100884.42
2023-04-16T14:13:34.375Z,100885.09
2023-04-16T14:16:13.264Z,100886.31
2023-04-16T14:18:52.511Z,100883.80
2023-04-16T14:21:31.573Z,100888.55
2023-04-16T14:24:10.901Z,100893.27
2023-04-16T14:26:49.866Z,100891.98
2023-04-16T14:29:27.895Z,100890.08
2023-04-16T14:32:07.961Z,100894.58
2023-04-16T14:34:48.323Z,100897.13
2023-04-16T14:37:26.904Z,100894.73
2023-04-16T14:40:08.609Z,100896.59
2023-04-16T14:42:46.925Z,100893.48
2023-04-16T14:45:30.366Z,100897.73
2023-04-16T14:48:09.341Z,100898.12
2023-04-16T14:50:47.612Z,100896.20
2023-04-16T14:53:27.624Z,100895.28
2023-04-16T14:56:04.759Z,100898.88
2023-04-16T14:58:40.577Z,100899.15
2023-04-16T15:01:19.209Z,100901.09
2023-04-16T15:03:58.264Z,100902.84
2023-04-16T15:06:39.773Z,100910.17
2023-04-16T15:09:18.524Z,100907.85
2023-04-16T15:11:59.241Z,100908.23
2023-04-16T15:14:37.539Z,100913.21
2023-04-16T15:17:15.831Z,100916.73
2023-04-16T15:19:54.012Z,100917.98
2023-04-16T15:22:33.043Z,100911.96
2023-04-16T15:25:13.491Z,100915.78
2023-04-16T15:27:52.225Z,100913.55
2023-04-16T15:30:30.565Z,100914.23
2023-04-16T15:33:10.453Z,100917.84
2023-04-16T15:35:51.339Z,100922.05
2023-04-16T15:38:31.413Z,100919.19
2023-04-16T15:41:10.002Z,100924.59
2023-04-16T15:43:49.508Z,100927.23
2023-04-16T15:46:28.972Z,100928.50
2023-04-16T15:49:06.713Z,100927.14
2023-04-16T15:51:44.815Z,100931.79
2023-04-16T15:54:24.592Z,100932.98
2023-04-16T15:57:03.300Z,100938.21
2023-04-16T15:59:43.557Z,100938.46
2023-04-16T16:02:25.482Z,100939.75
2023-04-16T16:05:04.257Z,100944.10
2023-04-16T16:07:42.928Z,100945.64
2023-04-16T16:10:21.378Z,100951.08
2023-04-16T16:13:05.669Z,100954.27
2023-04-16T16:15:43.738Z,100952.40
2023-04-16T16:18:22.957Z,100956.44
2023-04-16T16:21:02.799Z,100960.34
2023-04-16T16:23:40.722Z,100964.92
2023-04-16T16:26:21.288Z,100967.54
2023-04-16T16:29:02.092Z,100973.14
2023-04-16T16:31:37.932Z,100974.23
2023-04-16T16:34:20.819Z,100976.08
2023-04-16T16:37:02.654Z,100978.13
2023-04-16T16:39:41.938Z,100979.27
2023-04-16T16:42:21.133Z,100976.27
2023-04-16T16:45:00.827Z,100983.63
2023-04-16T16:47:43.473Z,100989.61
2023-04-16T16:50:21.999Z,100986.09
2023-04-16T16:53:02.435Z,100988.71
2023-04-16T16:55:41.332Z,100993.95
2023-04-16T16:58:19.404Z,100998.41
2023-04-16T17:00:57.296Z,101000.63
2023-04-16T17:03:36.116Z,101003.51
2023-04-16T17:06:14.152Z,101001.95
2023-04-16T17:08:52.618Z,101005.27
2023-04-16T17:11:32.006Z,101009.16
2023-04-16T17:14:11.339Z,101011.40
2023-04-16T17:16:50.223Z,101020.64
2023-04-16T17:19:30.299Z,101020.75
2023-04-16T17:22:10.579Z,101023.14
2023-04-16T17:24:50.205Z,101018.66
2023-04-16T17:27:22.013Z,101030.48
2023-04-16T17:30:02.265Z,101027.52
2023-04-16T17:32:41.702Z,101033.27
2023-04-16T17:35:20.144Z,101036.64
2023-04-16T17:37:59.790Z,101038.27
2023-04-16T17:40:40.401Z,101043.27
2023-04-16T17:43:19.768Z,101044.08
2023-04-16T17:45:59.776Z,101046.07
2023-04-16T17:48:38.678Z,101047.77
2023-04-16T17:51:19.548Z,101053.27
2023-04-16T17:53:58.255Z,101056.02
2023-04-16T17:56:36.624Z,101058.98
2023-04-16T17:59:16.044Z,101055.84
2023-04-16T18:01:57.049Z,101059.73
2023-04-16T18:04:36.052Z,101061.71
2023-04-16T18:07:14.308Z,101061.52
2023-04-16T18:09:54.295Z,101064.64
2023-04-16T18:12:34.238Z,101067.52
2023-04-16T18:15:14.889Z,101069.09
2023-04-16T18:17:54.697Z,101072.79
2023-04-16T18:20:34.343Z,101075.38
2023-04-16T18:23:15.246Z,101077.52
2023-04-16T18:25:54.811Z,101083.67
2023-04-16T18:28:30.736Z,101086.73
2023-04-16T18:31:10.704Z,101089.02
2023-04-16T18:33:57.591Z,101091.13
2023-04-16T18:36:38.651Z,101091.80
2023-04-16T18:39:17.079Z,101098.33
2023-04-16T18:41:55.489Z,101096.72
2023-04-16T18:44:34.729Z,101093.77
2023-04-16T18:47:13.893Z,101092.69
2023-04-16T18:50:01.259Z,101094.73
2023-04-16T18:52:38.385Z,101095.73
2023-04-16T18:55:17.404Z,101094.91
2023-04-16T18:57:57.256Z,101097.48
2023-04-16T19:00:35.989Z,101099.11
2023-04-16T19:03:14.894Z,101098.80
2023-04-16T19:05:54.427Z,101096.70
2023-04-16T19:08:33.618Z,101099.21
2023-04-16T19:11:19.942Z,101100.48
2023-04-16T19:14:02.876Z,101100.68
2023-04-16T19:16:44.692Z,101098.54
2023-04-16T19:19:24.767Z,101106.98
2023-04-16T19:22:04.546Z,101106.52
2023-04-16T19:24:43.849Z,101109.73
2023-04-16T19:27:22.689Z,101108.55
2023-04-16T19:30:03.543Z,101113.14
2023-04-16T19:32:43.283Z,101114.63
2023-04-16T19:35:22.371Z,101115.79
2023-04-16T19:38:01.719Z,101113.73
2023-04-16T19:40:40.784Z,101116.88
2023-04-16T19:43:19.294Z,101111.95
2023-04-16T19:45:58.815Z,101112.89
2023-04-16T19:48:37.717Z,101109.94
2023-04-16T19:51:16.803Z,101108.72
2023-04-16T19:53:54.842Z,101106.71
2023-04-16T19:56:26.158Z,101105.64
2023-04-16T19:59:04.664Z,101106.17
2023-04-16T20:01:43.261Z,101102.54
2023-04-16T20:04:15.544Z,101101.61
2023-04-16T20:06:55.437Z,101104.20
2023-04-16T20:09:35.332Z,101104.75
2023-04-16T20:12:15.895Z,101107.31
2023-04-16T20:14:55.706Z,101110.20
2023-04-16T20:17:36.016Z,101112.86
2023-04-16T20:20:16.900Z,101111.11
2023-04-16T20:22:53.692Z,101111.39
2023-04-16T20:25:33.931Z,101106.34
2023-04-16T20:28:06.854Z,101109.61
2023-04-16T20:30:45.492Z,101108.45
2023-04-16T20:33:24.130Z,101108.59
2023-04-16T20:36:04.752Z,101108.55
2023-04-16T20:38:44.059Z,101109.90
2023-04-16T20:41:25.674Z,101110.07
2023-04-16T20:44:06.191Z,101106.94
2023-04-16T20:46:44.575Z,101110.88
2023-04-16T20:49:22.524Z,101112.04
2023-04-16T20:52:02.586Z,101114.27
2023-04-16T20:54:40.809Z,101115.77
2023-04-16T20:57:18.801Z,101119.05
2023-04-16T20:59:56.731Z,101116.39
2023-04-16T21:02:35.814Z,101117.98
2023-04-16T21:05:17.399Z,101118.20
2023-04-16T21:07:55.903Z,101119.36
2023-04-16T21:10:34.158Z,101114.21
2023-04-16T21:13:13.436Z,101110.70
2023-04-16T21:15:51.651Z,101116.48
2023-04-16T21:18:29.789Z,101110.90
2023-04-16T21:21:07.785Z,101110.87
2023-04-16T21:23:46.266Z,101112.00
2023-04-16T21:26:24.323Z,101113.98
2023-04-16T21:29:02.345Z,101115.66
2023-04-16T21:31:34.054Z,101111.70
2023-04-16T21:34:08.740Z,101115.73
2023-04-16T21:36:46.921Z,101114.63
2023-04-16T21:39:28.064Z,101115.91
2023-04-16T21:42:03.750Z,101112.81
2023-04-16T21:44:42.223Z,101115.67
2023-04-16T21:47:20.175Z,101119.64
2023-04-16T21:49:58.435Z,101116.64
2023-04-16T21:52:41.575Z,101120.89
2023-04-16T21:55:19.111Z,101113.61
2023-04-16T21:57:56.608Z,101114.45
2023-04-16T22:00:34.530Z,101113.66
2023-04-16T22:03:13.526Z,101113.69
2023-04-16T22:05:52.131Z,101114.23
2023-04-16T22:08:30.614Z,101114.49
2023-04-16T22:11:09.062Z,101115.92
2023-04-16T22:13:48.095Z,101114.29
2023-04-16T22:16:29.110Z,101112.67
2023-04-16T22:19:05.047Z,101116.65
2023-04-16T22:21:43.322Z,101118.17
2023-04-16T22:24:21.036Z,101118.16
2023-04-16T22:26:59.978Z,101115.41
2023-04-16T22:29:39.418Z,101115.08
2023-04-16T22:32:10.274Z,101113.10
2023-04-16T22:34:48.459Z,101117.49
2023-04-16T22:37:26.637Z,101116.93
2023-04-16T22:39:56.936Z,101118.14
2023-04-16T22:42:33.807Z,101123.50
2023-04-16T22:45:14.221Z,101121.12
2023-04-16T22:47:51.639Z,101126.36
2023-04-16T22:50:31.686Z,101118.84
2023-04-16T22:53:10.177Z,101120.40
2023-04-16T22:55:48.635Z,101117.69
2023-04-16T22:58:19.466Z,101111.36
2023-04-16T23:01:00.661Z,101111.37
2023-04-16T23:03:31.046Z,101114.20
2023-04-16T23:06:09.755Z,101112.42
2023-04-16T23:08:47.419Z,101107.86
2023-04-16T23:11:26.341Z,101106.64
2023-04-16T23:14:05.413Z,101106.86
2023-04-16T23:16:43.141Z,101111.11
2023-04-16T23:19:21.549Z,101113.77
2023-04-16T23:21:59.896Z,101110.79
2023-04-16T23:24:36.990Z,101109.02
2023-04-16T23:27:14.694Z,101107.21
2023-04-16T23:29:52.316Z,101108.78
2023-04-16T23:32:30.004Z,101107.55
2023-04-16T23:35:10.152Z,101104.41
2023-04-16T23:37:48.531Z,101107.73
2023-04-16T23:40:19.431Z,101101.85
2023-04-16T23:42:52.050Z,101101.48
2023-04-16T23:45:30.974Z,101101.63
2023-04-16T23:48:01.580Z,101096.23
2023-04-16T23:50:39.858Z,101092.73
2023-04-16T23:53:17.831Z,101094.73
2023-04-16T23:55:55.413Z,101091.23
2023-04-16T23:58:32.888Z,101097.54
